Pagrindinis puslapis
METAR-TAF:

METAR-TAF

Oro uostai :

Stord, Norvegija

platuma: 59-48N, ilguma: 005-21E, Aukštis: 49 m

METAR: trūkstamas

Laikas: 02:05 (00:05 UTC)

Prognozė

Ataskaita buvo paskelbta 13 valandos ir 5 minutes, ne 11:00 UTC
Prognozė galioja nuo 01 metu 12 UTC su 01 metu 18 UTC
Vėjas 5 kt nuo kintamojo kryptimis
Matomumas 10 km arba daugiau
Mažai debesys ne aukštis 4000 ft
Išsisklaidę debesys ne aukštis 8000 ft
Tapsmas
nuo 01 metu 16 UTC su 01 metu 18 UTC
Vėjas 15 kt iš Pietų
Matomumas: 3000 m
Su prošvaistėmis ne aukštis 600 ft
Išsisklaidę debesys ne aukštis 2000 ft, Liūtiniai kamuoliniai debesys.
lietus, rūkana

TAF: ENSO 011100Z 0112/0118 VRB05KT 9999 FEW040 SCT080 BECMG 0116/0118 18015KT 3000 SHRA BR BKN006 SCT020CB

Orai ataskaitas ir orų prognozės (METAR, TAF).

turimą stotys yra geltonos ir raudonos taškus žemėlapyje.

Perkelti pele per norėdami pamatyti stoties vardą.

Tada spustelėkite, norėdami matyti oro stebėjimo ir prognozės.

Norėdami pakeisti žemėlapį: spustelėkite ant žalios mygtukų su juodo kryžiaus žemyn,; žalią mygtuką su brūkšneliu, jei norite nutolinti; arba žalių rodyklių gretimoms žemėlapius.


METAR-TAF: